sensor_id;sensor_type;location;lat;lon;timestamp;pressure;altitude;pressure_sealevel;temperature;humidity
51359;BME280;37448;51.588;7.248;2024-02-23T00:00:48;98134.09;;;5.83;100.00
51359;BME280;37448;51.588;7.248;2024-02-23T00:02:48;98146.13;;;5.84;100.00
51359;BME280;37448;51.588;7.248;2024-02-23T00:04:49;98153.19;;;5.79;100.00
51359;BME280;37448;51.588;7.248;2024-02-23T00:06:49;98158.69;;;5.71;100.00
51359;BME280;37448;51.588;7.248;2024-02-23T00:08:50;98161.19;;;5.72;100.00
51359;BME280;37448;51.588;7.248;2024-02-23T00:10:50;98166.34;;;5.72;100.00
51359;BME280;37448;51.588;7.248;2024-02-23T00:12:51;98171.13;;;5.59;100.00
51359;BME280;37448;51.588;7.248;2024-02-23T00:14:51;98176.19;;;5.63;100.00
51359;BME280;37448;51.588;7.248;2024-02-23T00:16:51;98186.53;;;5.63;100.00
51359;BME280;37448;51.588;7.248;2024-02-23T00:18:52;98201.41;;;5.56;100.00
51359;BME280;37448;51.588;7.248;2024-02-23T00:20:53;98198.78;;;5.57;100.00
51359;BME280;37448;51.588;7.248;2024-02-23T00:22:53;98204.97;;;5.53;100.00
51359;BME280;37448;51.588;7.248;2024-02-23T00:24:54;98205.13;;;5.49;100.00
51359;BME280;37448;51.588;7.248;2024-02-23T00:26:54;98217.59;;;5.37;100.00
51359;BME280;37448;51.588;7.248;2024-02-23T00:28:55;98227.03;;;5.38;100.00
51359;BME280;37448;51.588;7.248;2024-02-23T00:30:55;98217.75;;;5.33;100.00
51359;BME280;37448;51.588;7.248;2024-02-23T00:32:55;98239.44;;;5.28;100.00
51359;BME280;37448;51.588;7.248;2024-02-23T00:34:57;98247.97;;;5.30;100.00
51359;BME280;37448;51.588;7.248;2024-02-23T00:36:57;98266.88;;;5.31;100.00
51359;BME280;37448;51.588;7.248;2024-02-23T00:38:57;98265.38;;;5.25;100.00
51359;BME280;37448;51.588;7.248;2024-02-23T00:40:58;98260.19;;;5.25;100.00
51359;BME280;37448;51.588;7.248;2024-02-23T00:42:58;98263.56;;;5.27;100.00
51359;BME280;37448;51.588;7.248;2024-02-23T00:45:00;98263.81;;;5.20;100.00
51359;BME280;37448;51.588;7.248;2024-02-23T00:47:00;98264.84;;;5.15;100.00
51359;BME280;37448;51.588;7.248;2024-02-23T00:49:02;98269.81;;;5.20;100.00
51359;BME280;37448;51.588;7.248;2024-02-23T00:51:02;98272.34;;;5.23;100.00
51359;BME280;37448;51.588;7.248;2024-02-23T00:53:03;98288.75;;;5.21;100.00
51359;BME280;37448;51.588;7.248;2024-02-23T00:55:04;98291.31;;;5.22;100.00
51359;BME280;37448;51.588;7.248;2024-02-23T00:57:04;98295.66;;;5.20;100.00
51359;BME280;37448;51.588;7.248;2024-02-23T00:59:04;98293.72;;;5.27;100.00
51359;BME280;37448;51.588;7.248;2024-02-23T01:01:05;98292.13;;;5.23;100.00
51359;BME280;37448;51.588;7.248;2024-02-23T01:03:06;98296.56;;;5.19;100.00
51359;BME280;37448;51.588;7.248;2024-02-23T01:05:06;98303.63;;;5.14;100.00
51359;BME280;37448;51.588;7.248;2024-02-23T01:07:09;98306.06;;;5.19;99.41
51359;BME280;37448;51.588;7.248;2024-02-23T01:09:09;98306.88;;;5.19;99.59
51359;BME280;37448;51.588;7.248;2024-02-23T01:11:10;98304.59;;;5.11;98.54
51359;BME280;37448;51.588;7.248;2024-02-23T01:13:10;98306.06;;;5.19;99.13
51359;BME280;37448;51.588;7.248;2024-02-23T01:15:10;98306.09;;;5.17;98.35
51359;BME280;37448;51.588;7.248;2024-02-23T01:17:11;98305.16;;;5.20;99.90
51359;BME280;37448;51.588;7.248;2024-02-23T01:19:11;98316.31;;;5.20;100.00
51359;BME280;37448;51.588;7.248;2024-02-23T01:21:12;98313.84;;;5.17;98.81
51359;BME280;37448;51.588;7.248;2024-02-23T01:23:12;98318.97;;;5.19;98.62
51359;BME280;37448;51.588;7.248;2024-02-23T01:25:12;98314.81;;;5.14;97.68
51359;BME280;37448;51.588;7.248;2024-02-23T01:27:15;98313.03;;;5.16;98.78
51359;BME280;37448;51.588;7.248;2024-02-23T01:29:16;98323.38;;;5.15;97.85
51359;BME280;37448;51.588;7.248;2024-02-23T01:31:17;98331.25;;;5.12;97.93
51359;BME280;37448;51.588;7.248;2024-02-23T01:33:17;98323.56;;;5.10;97.61
51359;BME280;37448;51.588;7.248;2024-02-23T01:35:17;98337.16;;;5.15;98.43
51359;BME280;37448;51.588;7.248;2024-02-23T01:37:18;98333.94;;;5.09;94.99
51359;BME280;37448;51.588;7.248;2024-02-23T01:39:18;98350.25;;;5.09;96.68
51359;BME280;37448;51.588;7.248;2024-02-23T01:41:18;98342.50;;;5.09;98.43
51359;BME280;37448;51.588;7.248;2024-02-23T01:43:19;98339.88;;;5.11;97.19
51359;BME280;37448;51.588;7.248;2024-02-23T01:45:19;98348.63;;;5.07;95.23
51359;BME280;37448;51.588;7.248;2024-02-23T01:47:19;98354.63;;;5.07;96.36
51359;BME280;37448;51.588;7.248;2024-02-23T01:49:20;98359.16;;;5.00;96.78
51359;BME280;37448;51.588;7.248;2024-02-23T01:51:21;98357.47;;;4.99;96.87
51359;BME280;37448;51.588;7.248;2024-02-23T01:53:22;98370.41;;;4.98;97.79
51359;BME280;37448;51.588;7.248;2024-02-23T01:55:23;98371.34;;;4.95;96.70
51359;BME280;37448;51.588;7.248;2024-02-23T01:57:24;98355.59;;;5.05;97.49
51359;BME280;37448;51.588;7.248;2024-02-23T01:59:25;98358.06;;;5.08;98.94
51359;BME280;37448;51.588;7.248;2024-02-23T02:01:26;98358.00;;;5.09;97.82
51359;BME280;37448;51.588;7.248;2024-02-23T02:03:26;98359.75;;;5.09;95.47
51359;BME280;37448;51.588;7.248;2024-02-23T02:05:26;98348.66;;;5.05;95.94
51359;BME280;37448;51.588;7.248;2024-02-23T02:07:28;98354.00;;;5.00;93.00
51359;BME280;37448;51.588;7.248;2024-02-23T02:09:29;98355.69;;;5.01;95.24
51359;BME280;37448;51.588;7.248;2024-02-23T02:11:29;98363.44;;;5.01;93.79
51359;BME280;37448;51.588;7.248;2024-02-23T02:13:30;98365.16;;;5.01;94.81
51359;BME280;37448;51.588;7.248;2024-02-23T02:15:30;98359.97;;;5.02;95.62
51359;BME280;37448;51.588;7.248;2024-02-23T02:17:30;98362.53;;;5.02;95.36
51359;BME280;37448;51.588;7.248;2024-02-23T02:19:31;98355.59;;;5.05;96.73
51359;BME280;37448;51.588;7.248;2024-02-23T02:21:32;98350.41;;;5.05;97.92
51359;BME280;37448;51.588;7.248;2024-02-23T02:23:33;98363.28;;;5.06;95.60
51359;BME280;37448;51.588;7.248;2024-02-23T02:25:33;98364.81;;;5.12;97.17
51359;BME280;37448;51.588;7.248;2024-02-23T02:27:34;98379.44;;;5.13;95.27
51359;BME280;37448;51.588;7.248;2024-02-23T02:29:35;98364.63;;;5.18;98.46
51359;BME280;37448;51.588;7.248;2024-02-23T02:31:36;98365.53;;;5.17;96.80
51359;BME280;37448;51.588;7.248;2024-02-23T02:33:37;98372.47;;;5.15;96.47
51359;BME280;37448;51.588;7.248;2024-02-23T02:35:37;98365.53;;;5.17;96.61
51359;BME280;37448;51.588;7.248;2024-02-23T02:37:38;98385.50;;;5.12;94.97
51359;BME280;37448;51.588;7.248;2024-02-23T02:39:39;98381.19;;;5.12;94.70
51359;BME280;37448;51.588;7.248;2024-02-23T02:41:39;98388.06;;;5.12;94.68
51359;BME280;37448;51.588;7.248;2024-02-23T02:43:40;98393.34;;;5.09;97.70
51359;BME280;37448;51.588;7.248;2024-02-23T02:45:40;98389.88;;;5.10;96.92
51359;BME280;37448;51.588;7.248;2024-02-23T02:47:40;98404.47;;;5.11;95.11
51359;BME280;37448;51.588;7.248;2024-02-23T02:49:41;98400.84;;;5.16;95.18
51359;BME280;37448;51.588;7.248;2024-02-23T02:51:42;98405.16;;;5.16;92.86
51359;BME280;37448;51.588;7.248;2024-02-23T02:53:42;98419.88;;;5.14;92.06
51359;BME280;37448;51.588;7.248;2024-02-23T02:55:43;98408.53;;;5.18;92.22
51359;BME280;37448;51.588;7.248;2024-02-23T02:57:44;98419.88;;;5.14;88.21
51359;BME280;37448;51.588;7.248;2024-02-23T02:59:45;98420.66;;;5.16;90.39
51359;BME280;37448;51.588;7.248;2024-02-23T03:01:46;98413.91;;;5.12;91.91
51359;BME280;37448;51.588;7.248;2024-02-23T03:03:47;98419.06;;;5.12;93.32
51359;BME280;37448;51.588;7.248;2024-02-23T03:05:47;98415.59;;;5.13;93.41
51359;BME280;37448;51.588;7.248;2024-02-23T03:07:48;98414.00;;;5.09;92.41
51359;BME280;37448;51.588;7.248;2024-02-23T03:09:48;98413.97;;;5.10;94.23
51359;BME280;37448;51.588;7.248;2024-02-23T03:11:50;98422.66;;;5.08;94.13
51359;BME280;37448;51.588;7.248;2024-02-23T03:13:51;98438.16;;;5.08;94.68
51359;BME280;37448;51.588;7.248;2024-02-23T03:15:52;98420.97;;;5.07;93.29
51359;BME280;37448;51.588;7.248;2024-02-23T03:17:52;98426.22;;;5.04;92.54
51359;BME280;37448;51.588;7.248;2024-02-23T03:19:54;98440.91;;;5.01;92.65
51359;BME280;37448;51.588;7.248;2024-02-23T03:21:55;98433.06;;;5.05;94.74
51359;BME280;37448;51.588;7.248;2024-02-23T03:23:55;98446.97;;;5.00;93.69
51359;BME280;37448;51.588;7.248;2024-02-23T03:25:55;98448.66;;;5.01;94.48
51359;BME280;37448;51.588;7.248;2024-02-23T03:27:56;98453.06;;;4.98;93.67
51359;BME280;37448;51.588;7.248;2024-02-23T03:29:56;98441.03;;;4.97;93.95
51359;BME280;37448;51.588;7.248;2024-02-23T03:31:56;98449.78;;;4.93;95.83
51359;BME280;37448;51.588;7.248;2024-02-23T03:33:57;98447.31;;;4.88;92.75
51359;BME280;37448;51.588;7.248;2024-02-23T03:35:57;98448.13;;;4.90;94.20
51359;BME280;37448;51.588;7.248;2024-02-23T03:37:58;98451.72;;;4.84;93.56
51359;BME280;37448;51.588;7.248;2024-02-23T03:39:59;98453.38;;;4.87;95.13
51359;BME280;37448;51.588;7.248;2024-02-23T03:42:03;98449.19;;;4.83;93.46
51359;BME280;37448;51.588;7.248;2024-02-23T03:44:04;98446.53;;;4.86;94.98
51359;BME280;37448;51.588;7.248;2024-02-23T03:46:06;98452.59;;;4.85;94.79
51359;BME280;37448;51.588;7.248;2024-02-23T03:48:06;98465.53;;;4.83;93.33
51359;BME280;37448;51.588;7.248;2024-02-23T03:50:07;98459.44;;;4.86;94.43
51359;BME280;37448;51.588;7.248;2024-02-23T03:52:08;98463.69;;;4.88;96.13
51359;BME280;37448;51.588;7.248;2024-02-23T03:54:08;98467.97;;;4.88;94.79
51359;BME280;37448;51.588;7.248;2024-02-23T03:56:08;98474.94;;;4.86;91.63
51359;BME280;37448;51.588;7.248;2024-02-23T03:58:09;98461.03;;;4.90;93.54
51359;BME280;37448;51.588;7.248;2024-02-23T04:00:10;98469.59;;;4.92;93.88
51359;BME280;37448;51.588;7.248;2024-02-23T04:02:15;98465.31;;;4.91;93.70
51359;BME280;37448;51.588;7.248;2024-02-23T04:04:17;98467.88;;;4.91;92.67
51359;BME280;37448;51.588;7.248;2024-02-23T04:06:17;98471.19;;;4.96;93.17
51359;BME280;37448;51.588;7.248;2024-02-23T04:08:18;98479.81;;;4.95;93.67
51359;BME280;37448;51.588;7.248;2024-02-23T04:10:18;98472.13;;;4.94;92.19
51359;BME280;37448;51.588;7.248;2024-02-23T04:12:19;98472.97;;;4.94;92.42
51359;BME280;37448;51.588;7.248;2024-02-23T04:14:20;98472.88;;;4.97;94.80
51359;BME280;37448;51.588;7.248;2024-02-23T04:16:25;98485.88;;;4.94;94.37
51359;BME280;37448;51.588;7.248;2024-02-23T04:18:25;98473.81;;;4.95;92.91
51359;BME280;37448;51.588;7.248;2024-02-23T04:20:26;98488.47;;;4.94;91.11
51359;BME280;37448;51.588;7.248;2024-02-23T04:22:26;98481.59;;;4.93;89.44
51359;BME280;37448;51.588;7.248;2024-02-23T04:24:26;98479.81;;;4.95;92.38
51359;BME280;37448;51.588;7.248;2024-02-23T04:26:27;98486.69;;;4.96;91.24
51359;BME280;37448;51.588;7.248;2024-02-23T04:28:27;98493.50;;;4.99;90.80
51359;BME280;37448;51.588;7.248;2024-02-23T04:30:31;98494.38;;;4.99;92.26
51359;BME280;37448;51.588;7.248;2024-02-23T04:32:31;98501.25;;;4.99;90.03
51359;BME280;37448;51.588;7.248;2024-02-23T04:34:31;98503.88;;;4.97;89.72
51359;BME280;37448;51.588;7.248;2024-02-23T04:36:32;98504.63;;;5.01;92.40
51359;BME280;37448;51.588;7.248;2024-02-23T04:38:32;98511.50;;;5.02;93.35
51359;BME280;37448;51.588;7.248;2024-02-23T04:40:34;98510.69;;;5.00;93.23
51359;BME280;37448;51.588;7.248;2024-02-23T04:42:35;98506.41;;;4.99;91.98
51359;BME280;37448;51.588;7.248;2024-02-23T04:44:36;98516.75;;;4.99;91.91
51359;BME280;37448;51.588;7.248;2024-02-23T04:46:36;98514.19;;;4.97;90.62
51359;BME280;37448;51.588;7.248;2024-02-23T04:48:36;98520.13;;;5.01;93.22
51359;BME280;37448;51.588;7.248;2024-02-23T04:50:37;98521.09;;;4.98;90.00
51359;BME280;37448;51.588;7.248;2024-02-23T04:52:37;98521.16;;;4.95;90.12
51359;BME280;37448;51.588;7.248;2024-02-23T04:54:38;98528.78;;;5.00;92.52
51359;BME280;37448;51.588;7.248;2024-02-23T04:56:38;98523.59;;;5.00;93.43
51359;BME280;37448;51.588;7.248;2024-02-23T04:58:38;98523.78;;;4.94;89.92
51359;BME280;37448;51.588;7.248;2024-02-23T05:00:42;98531.41;;;4.98;91.67
51359;BME280;37448;51.588;7.248;2024-02-23T05:02:42;98521.09;;;4.98;91.31
51359;BME280;37448;51.588;7.248;2024-02-23T05:04:42;98536.50;;;5.01;91.20
51359;BME280;37448;51.588;7.248;2024-02-23T05:06:43;98531.34;;;5.00;90.49
51359;BME280;37448;51.588;7.248;2024-02-23T05:08:44;98541.75;;;4.98;91.21
51359;BME280;37448;51.588;7.248;2024-02-23T05:10:45;98530.56;;;4.98;92.11
51359;BME280;37448;51.588;7.248;2024-02-23T05:12:46;98536.63;;;4.97;89.64
51359;BME280;37448;51.588;7.248;2024-02-23T05:14:46;98535.59;;;5.02;94.09
51359;BME280;37448;51.588;7.248;2024-02-23T05:16:46;98538.19;;;5.02;93.24
51359;BME280;37448;51.588;7.248;2024-02-23T05:18:47;98538.28;;;4.99;92.39
51359;BME280;37448;51.588;7.248;2024-02-23T05:20:47;98533.09;;;4.99;92.79
51359;BME280;37448;51.588;7.248;2024-02-23T05:22:48;98540.84;;;4.99;91.10
51359;BME280;37448;51.588;7.248;2024-02-23T05:24:48;98534.84;;;4.97;88.75
51359;BME280;37448;51.588;7.248;2024-02-23T05:26:48;98540.03;;;4.97;91.47
51359;BME280;37448;51.588;7.248;2024-02-23T05:28:49;98534.00;;;4.98;90.59
51359;BME280;37448;51.588;7.248;2024-02-23T05:30:49;98535.72;;;4.98;89.91
51359;BME280;37448;51.588;7.248;2024-02-23T05:32:50;98529.69;;;4.97;90.69
51359;BME280;37448;51.588;7.248;2024-02-23T05:34:50;98536.63;;;4.95;88.04
51359;BME280;37448;51.588;7.248;2024-02-23T05:36:53;98525.47;;;4.95;90.62
51359;BME280;37448;51.588;7.248;2024-02-23T05:38:53;98525.38;;;4.99;89.59
51359;BME280;37448;51.588;7.248;2024-02-23T05:40:53;98519.34;;;4.99;90.48
51359;BME280;37448;51.588;7.248;2024-02-23T05:42:54;98530.56;;;4.98;89.02
51359;BME280;37448;51.588;7.248;2024-02-23T05:44:54;98522.00;;;4.96;88.24
51359;BME280;37448;51.588;7.248;2024-02-23T05:46:55;98527.13;;;4.97;89.87
51359;BME280;37448;51.588;7.248;2024-02-23T05:48:55;98520.31;;;4.95;87.23
51359;BME280;37448;51.588;7.248;2024-02-23T05:50:55;98522.03;;;4.94;90.21
51359;BME280;37448;51.588;7.248;2024-02-23T05:52:56;98527.97;;;4.98;90.13
51359;BME280;37448;51.588;7.248;2024-02-23T05:54:56;98512.75;;;4.88;86.33
51359;BME280;37448;51.588;7.248;2024-02-23T05:56:57;98530.59;;;4.96;87.85
51359;BME280;37448;51.588;7.248;2024-02-23T05:58:57;98528.09;;;4.93;88.84
51359;BME280;37448;51.588;7.248;2024-02-23T06:00:57;98521.22;;;4.92;86.87
51359;BME280;37448;51.588;7.248;2024-02-23T06:02:58;98520.41;;;4.92;89.40
51359;BME280;37448;51.588;7.248;2024-02-23T06:04:58;98510.06;;;4.92;90.17
51359;BME280;37448;51.588;7.248;2024-02-23T06:06:58;98509.22;;;4.91;91.61
51359;BME280;37448;51.588;7.248;2024-02-23T06:08:59;98520.63;;;4.84;89.55
51359;BME280;37448;51.588;7.248;2024-02-23T06:11:00;98523.38;;;4.78;91.96
51359;BME280;37448;51.588;7.248;2024-02-23T06:13:00;98514.72;;;4.79;94.60
51359;BME280;37448;51.588;7.248;2024-02-23T06:15:01;98505.41;;;4.73;91.75
51359;BME280;37448;51.588;7.248;2024-02-23T06:17:02;98507.13;;;4.72;89.24
51359;BME280;37448;51.588;7.248;2024-02-23T06:19:03;98509.78;;;4.71;90.25
51359;BME280;37448;51.588;7.248;2024-02-23T06:21:11;98506.47;;;4.66;87.27
51359;BME280;37448;51.588;7.248;2024-02-23T06:23:12;98506.50;;;4.64;91.76
51359;BME280;37448;51.588;7.248;2024-02-23T06:25:13;98513.44;;;4.62;91.88
51359;BME280;37448;51.588;7.248;2024-02-23T06:27:14;98508.41;;;4.57;91.48
51359;BME280;37448;51.588;7.248;2024-02-23T06:29:14;98509.34;;;4.55;91.75
51359;BME280;37448;51.588;7.248;2024-02-23T06:31:15;98502.44;;;4.55;93.11
51359;BME280;37448;51.588;7.248;2024-02-23T06:33:15;98511.03;;;4.56;91.20
51359;BME280;37448;51.588;7.248;2024-02-23T06:35:16;98506.78;;;4.55;91.70
51359;BME280;37448;51.588;7.248;2024-02-23T06:37:17;98511.06;;;4.54;88.69
51359;BME280;37448;51.588;7.248;2024-02-23T06:39:17;98511.06;;;4.54;88.64
51359;BME280;37448;51.588;7.248;2024-02-23T06:41:18;98502.44;;;4.55;92.29
51359;BME280;37448;51.588;7.248;2024-02-23T06:43:19;98506.69;;;4.58;88.77
51359;BME280;37448;51.588;7.248;2024-02-23T06:45:19;98499.75;;;4.60;89.41
51359;BME280;37448;51.588;7.248;2024-02-23T06:47:25;98509.19;;;4.61;89.89
51359;BME280;37448;51.588;7.248;2024-02-23T06:49:26;98519.50;;;4.61;87.71
51359;BME280;37448;51.588;7.248;2024-02-23T06:51:26;98513.44;;;4.62;91.07
51359;BME280;37448;51.588;7.248;2024-02-23T06:53:26;98506.59;;;4.61;91.76
51359;BME280;37448;51.588;7.248;2024-02-23T06:55:28;98504.03;;;4.59;91.66
51359;BME280;37448;51.588;7.248;2024-02-23T06:57:28;98511.75;;;4.61;91.26
51359;BME280;37448;51.588;7.248;2024-02-23T06:59:31;98515.25;;;4.58;89.51
51359;BME280;37448;51.588;7.248;2024-02-23T07:01:32;98509.97;;;4.63;88.93
51359;BME280;37448;51.588;7.248;2024-02-23T07:03:35;98516.00;;;4.64;89.76
51359;BME280;37448;51.588;7.248;2024-02-23T07:05:35;98535.78;;;4.63;88.26
51359;BME280;37448;51.588;7.248;2024-02-23T07:07:36;98530.59;;;4.65;90.52
51359;BME280;37448;51.588;7.248;2024-02-23T07:09:36;98528.03;;;4.65;89.28
51359;BME280;37448;51.588;7.248;2024-02-23T07:11:37;98522.81;;;4.66;91.88
51359;BME280;37448;51.588;7.248;2024-02-23T07:13:38;98530.53;;;4.66;89.73
51359;BME280;37448;51.588;7.248;2024-02-23T07:15:40;98523.56;;;4.70;89.36
51359;BME280;37448;51.588;7.248;2024-02-23T07:17:41;98513.34;;;4.67;86.73
51359;BME280;37448;51.588;7.248;2024-02-23T07:19:41;98523.59;;;4.68;89.73
51359;BME280;37448;51.588;7.248;2024-02-23T07:21:42;98527.88;;;4.69;90.17
51359;BME280;37448;51.588;7.248;2024-02-23T07:23:42;98524.41;;;4.70;90.47
51359;BME280;37448;51.588;7.248;2024-02-23T07:25:42;98522.63;;;4.72;89.38
51359;BME280;37448;51.588;7.248;2024-02-23T07:27:44;98526.97;;;4.72;87.65
51359;BME280;37448;51.588;7.248;2024-02-23T07:29:44;98517.41;;;4.76;88.53
51359;BME280;37448;51.588;7.248;2024-02-23T07:31:45;98532.84;;;4.77;90.44
51359;BME280;37448;51.588;7.248;2024-02-23T07:33:46;98528.44;;;4.81;89.10
51359;BME280;37448;51.588;7.248;2024-02-23T07:35:46;98525.69;;;4.87;87.49
51359;BME280;37448;51.588;7.248;2024-02-23T07:37:46;98529.78;;;4.94;85.54
51359;BME280;37448;51.588;7.248;2024-02-23T07:39:47;98523.50;;;5.03;85.59
51359;BME280;37448;51.588;7.248;2024-02-23T07:41:47;98528.34;;;5.15;90.76
51359;BME280;37448;51.588;7.248;2024-02-23T07:43:48;98532.66;;;5.15;90.05
51359;BME280;37448;51.588;7.248;2024-02-23T07:45:49;98518.69;;;5.22;91.93
51359;BME280;37448;51.588;7.248;2024-02-23T07:47:49;98516.22;;;5.46;88.04
51359;BME280;37448;51.588;7.248;2024-02-23T07:49:49;98531.63;;;5.79;83.19
51359;BME280;37448;51.588;7.248;2024-02-23T07:51:51;98524.41;;;5.89;90.54
51359;BME280;37448;51.588;7.248;2024-02-23T07:53:51;98538.06;;;5.93;86.76
51359;BME280;37448;51.588;7.248;2024-02-23T07:55:52;98549.84;;;6.03;87.34
51359;BME280;37448;51.588;7.248;2024-02-23T07:57:52;98538.38;;;6.10;92.39
51359;BME280;37448;51.588;7.248;2024-02-23T07:59:57;98543.88;;;6.01;84.42
51359;BME280;37448;51.588;7.248;2024-02-23T08:01:58;98538.13;;;5.91;81.32
51359;BME280;37448;51.588;7.248;2024-02-23T08:03:58;98538.03;;;5.94;86.54
51359;BME280;37448;51.588;7.248;2024-02-23T08:05:59;98550.38;;;5.86;83.42
51359;BME280;37448;51.588;7.248;2024-02-23T08:08:00;98551.31;;;5.83;83.80
51359;BME280;37448;51.588;7.248;2024-02-23T08:10:00;98555.56;;;5.86;86.58
51359;BME280;37448;51.588;7.248;2024-02-23T08:12:00;98547.81;;;5.84;87.99
51359;BME280;37448;51.588;7.248;2024-02-23T08:14:01;98562.56;;;5.82;85.95
51359;BME280;37448;51.588;7.248;2024-02-23T08:16:03;98549.81;;;5.76;85.07
51359;BME280;37448;51.588;7.248;2024-02-23T08:18:04;98555.81;;;5.77;86.65
51359;BME280;37448;51.588;7.248;2024-02-23T08:20:05;98558.47;;;5.75;86.15
51359;BME280;37448;51.588;7.248;2024-02-23T08:22:05;98559.19;;;5.79;87.18
51359;BME280;37448;51.588;7.248;2024-02-23T08:24:06;98565.34;;;5.76;84.55
51359;BME280;37448;51.588;7.248;2024-02-23T08:26:07;98570.34;;;5.81;84.21
51359;BME280;37448;51.588;7.248;2024-02-23T08:28:08;98564.94;;;5.88;86.38
51359;BME280;37448;51.588;7.248;2024-02-23T08:30:09;98580.44;;;5.90;85.89
51359;BME280;37448;51.588;7.248;2024-02-23T08:32:11;98569.31;;;5.86;84.99
51359;BME280;37448;51.588;7.248;2024-02-23T08:34:11;98566.72;;;5.86;86.98
51359;BME280;37448;51.588;7.248;2024-02-23T08:36:12;98569.41;;;5.83;85.37
51359;BME280;37448;51.588;7.248;2024-02-23T08:38:12;98579.78;;;5.82;85.66
51359;BME280;37448;51.588;7.248;2024-02-23T08:40:13;98566.84;;;5.83;87.48
51359;BME280;37448;51.588;7.248;2024-02-23T08:42:14;98572.09;;;5.80;87.18
51359;BME280;37448;51.588;7.248;2024-02-23T08:44:14;98568.59;;;5.83;90.76
51359;BME280;37448;51.588;7.248;2024-02-23T08:46:14;98568.81;;;5.75;84.92
51359;BME280;37448;51.588;7.248;2024-02-23T08:48:15;98561.06;;;5.75;84.33
51359;BME280;37448;51.588;7.248;2024-02-23T08:50:15;98564.38;;;5.79;84.52
51359;BME280;37448;51.588;7.248;2024-02-23T08:52:15;98565.03;;;5.85;87.23
51359;BME280;37448;51.588;7.248;2024-02-23T08:54:16;98565.50;;;5.98;89.30
51359;BME280;37448;51.588;7.248;2024-02-23T08:56:16;98567.94;;;6.03;87.22
51359;BME280;37448;51.588;7.248;2024-02-23T08:58:17;98564.41;;;6.06;85.75
51359;BME280;37448;51.588;7.248;2024-02-23T09:00:18;98564.25;;;6.10;86.39
51359;BME280;37448;51.588;7.248;2024-02-23T09:02:18;98570.41;;;6.08;85.18
51359;BME280;37448;51.588;7.248;2024-02-23T09:04:19;98572.66;;;6.19;87.09
51359;BME280;37448;51.588;7.248;2024-02-23T09:06:19;98567.53;;;6.15;85.04
51359;BME280;37448;51.588;7.248;2024-02-23T09:08:20;98566.84;;;6.10;84.90
51359;BME280;37448;51.588;7.248;2024-02-23T09:10:20;98569.34;;;6.13;86.82
51359;BME280;37448;51.588;7.248;2024-02-23T09:12:21;98562.47;;;6.12;84.63
51359;BME280;37448;51.588;7.248;2024-02-23T09:14:21;98575.41;;;6.12;85.13
51359;BME280;37448;51.588;7.248;2024-02-23T09:16:22;98566.84;;;6.10;83.73
51359;BME280;37448;51.588;7.248;2024-02-23T09:18:24;98568.75;;;6.05;80.23
51359;BME280;37448;51.588;7.248;2024-02-23T09:20:25;98569.50;;;6.09;84.00
51359;BME280;37448;51.588;7.248;2024-02-23T09:22:25;98567.66;;;6.12;85.83
51359;BME280;37448;51.588;7.248;2024-02-23T09:24:25;98571.09;;;6.13;85.45
51359;BME280;37448;51.588;7.248;2024-02-23T09:26:26;98569.34;;;6.13;83.44
51359;BME280;37448;51.588;7.248;2024-02-23T09:28:26;98565.66;;;6.21;82.35
51359;BME280;37448;51.588;7.248;2024-02-23T09:30:27;98577.41;;;6.31;85.54
51359;BME280;37448;51.588;7.248;2024-02-23T09:32:27;98571.88;;;6.42;86.99
51359;BME280;37448;51.588;7.248;2024-02-23T09:34:28;98570.94;;;6.44;87.80
51359;BME280;37448;51.588;7.248;2024-02-23T09:36:29;98584.16;;;6.35;81.85
51359;BME280;37448;51.588;7.248;2024-02-23T09:38:30;98585.59;;;6.44;86.69
51359;BME280;37448;51.588;7.248;2024-02-23T09:40:32;98593.53;;;6.39;83.16
51359;BME280;37448;51.588;7.248;2024-02-23T09:42:33;98595.41;;;6.34;81.76
51359;BME280;37448;51.588;7.248;2024-02-23T09:44:33;98587.75;;;6.31;80.51
51359;BME280;37448;51.588;7.248;2024-02-23T09:46:36;98585.16;;;6.31;82.07
51359;BME280;37448;51.588;7.248;2024-02-23T09:48:37;98592.94;;;6.31;83.13
51359;BME280;37448;51.588;7.248;2024-02-23T09:50:37;98591.09;;;6.35;83.80
51359;BME280;37448;51.588;7.248;2024-02-23T09:52:38;98591.03;;;6.36;84.64
51359;BME280;37448;51.588;7.248;2024-02-23T09:54:38;98603.09;;;6.37;81.79
51359;BME280;37448;51.588;7.248;2024-02-23T09:56:39;98598.66;;;6.41;81.75
51359;BME280;37448;51.588;7.248;2024-02-23T09:58:41;98593.47;;;6.41;82.27
51359;BME280;37448;51.588;7.248;2024-02-23T10:00:42;98590.75;;;6.45;82.79
51359;BME280;37448;51.588;7.248;2024-02-23T10:02:44;98591.69;;;6.43;82.35
51359;BME280;37448;51.588;7.248;2024-02-23T10:04:44;98596.00;;;6.42;80.10
51359;BME280;37448;51.588;7.248;2024-02-23T10:06:44;98600.25;;;6.45;80.48
51359;BME280;37448;51.588;7.248;2024-02-23T10:08:45;98600.91;;;6.52;81.14
51359;BME280;37448;51.588;7.248;2024-02-23T10:10:46;98600.69;;;6.58;79.36
51359;BME280;37448;51.588;7.248;2024-02-23T10:12:47;98603.06;;;6.64;80.09
51359;BME280;37448;51.588;7.248;2024-02-23T10:14:47;98586.63;;;6.65;78.50
51359;BME280;37448;51.588;7.248;2024-02-23T10:16:48;98581.16;;;6.74;83.93
51359;BME280;37448;51.588;7.248;2024-02-23T10:18:53;98589.72;;;6.77;81.33
51359;BME280;37448;51.588;7.248;2024-02-23T10:20:54;98586.22;;;6.78;79.58
51359;BME280;37448;51.588;7.248;2024-02-23T10:22:54;98578.47;;;6.76;79.03
51359;BME280;37448;51.588;7.248;2024-02-23T10:24:55;98579.19;;;6.81;78.65
51359;BME280;37448;51.588;7.248;2024-02-23T10:26:55;98581.50;;;6.89;80.24
51359;BME280;37448;51.588;7.248;2024-02-23T10:28:56;98586.53;;;6.94;81.04
51359;BME280;37448;51.588;7.248;2024-02-23T10:30:58;98588.22;;;6.95;80.05
51359;BME280;37448;51.588;7.248;2024-02-23T10:33:00;98599.44;;;6.95;81.13
51359;BME280;37448;51.588;7.248;2024-02-23T10:35:01;98594.97;;;6.99;82.73
51359;BME280;37448;51.588;7.248;2024-02-23T10:37:06;98601.00;;;6.99;84.24
51359;BME280;37448;51.588;7.248;2024-02-23T10:39:08;98605.28;;;7.00;80.96
51359;BME280;37448;51.588;7.248;2024-02-23T10:41:12;98604.53;;;6.97;77.64
51359;BME280;37448;51.588;7.248;2024-02-23T10:43:19;98621.75;;;6.99;77.68
51359;BME280;37448;51.588;7.248;2024-02-23T10:45:21;98613.06;;;7.00;80.88
51359;BME280;37448;51.588;7.248;2024-02-23T10:47:24;98612.38;;;6.95;80.12